Aérodrome :
LOGIN :

S'inscrire | Disclaimer

   EN    FR    IT 

 










Légende :    VFR   VFR Marginal   IFR   IFR Intensif   IFR Très Intensif
Visi : 
Plafond : 
>= 8 km
>= 3000ft
5 à 8 km
1000 à 3000 ft
1500m à 5 km
500 à 1000 ft
800 à 1500m
200 à 500 ft
< 800m
< 200 ft
Symboles :   Orages  Brouillard  Fortes neiges  Fortes précipitations  Vent > 20 kt
SIGMETs :   Divers  Orages  Givrage  Turbulence  Onde Orograph.  Cendres Volcan.







- Altitude de l'aérodrome : 741 ft
- Code IATA : JKG


ESGJ - Jönköping

DERNIER METAR :
  • 240650Z 22010KT 9999 -DZ BKN013 BKN040 07/05 Q1003

METARs EXPIRÉS :
  • 240620Z 22011KT 9999 BKN014 07/05 Q1003
  • 240550Z 23010KT 9999 BKN016 BKN078 07/04 Q1003
  • 240520Z 23010KT 9999 SCT015 07/04 Q1003
  • 240450Z 22009KT 9999 SCT015 BKN021 BKN088 06/04 Q1003
  • 240420Z 23010KT 9999 BKN015 OVC021 06/04 Q1003

TAF TAF ESGJ
Valide du 24 à 06h jusqu'au 24 à 15h UTC


240530Z 2406/2415 24010KT 9999 OVC015
TEMPO 2406/2408 4000 -RA BKN010
BECMG 2408/2410 4000 -RA BR BKN008
TEMPO 2410/2415 2500 RA BKN004
Pas de NOTAMs connus pour ce terrain.



MET'MAP, la Météo Aéronautique d'un coup d'oeil ! - Copyright ORBIFLY Décembre 2007 - Disclaimer

ORBIFLY MET'MAP TEAM :

Programmation & Développement : Alexandra Zaïnal
Conception & Développement : Baudouin d'Aumeries
Co-Programmation & Développement : Marc-Olivier Méhu
Soutien technique & logistique : Manuel Goepfert

Contact : metmap@orbifly.com




SOURCES & CREDITS :

   NOAA